createdAt,value
2018-02-22T00:05:51.613Z,28.00
2018-02-22T00:09:22.521Z,27.30
2018-02-22T00:12:07.282Z,28.37
2018-02-22T00:21:31.637Z,31.97
2018-02-22T00:24:35.514Z,28.03
2018-02-22T00:27:28.772Z,28.70
2018-02-22T00:46:02.394Z,28.33
2018-02-22T00:48:58.084Z,29.17
2018-02-22T00:51:52.753Z,28.37
2018-02-22T00:54:41.230Z,27.63
2018-02-22T00:57:28.095Z,31.20
2018-02-22T01:00:09.503Z,28.50
2018-02-22T01:02:48.866Z,28.60
2018-02-22T01:05:48.678Z,28.30
2018-02-22T01:08:55.838Z,29.27
2018-02-22T01:11:46.945Z,27.73
2018-02-22T01:17:41.538Z,27.70
2018-02-22T01:20:26.877Z,27.57
2018-02-22T01:23:11.950Z,27.60
2018-02-22T01:26:04.669Z,25.17
2018-02-22T01:31:31.239Z,26.47
2018-02-22T01:34:28.828Z,24.30
2018-02-22T01:37:27.439Z,26.23
2018-02-22T01:40:21.950Z,26.93
2018-02-22T01:43:01.158Z,28.30
2018-02-22T01:45:41.358Z,26.57
2018-02-22T01:48:31.560Z,29.50
2018-02-22T01:51:16.832Z,28.90
2018-02-22T01:54:14.411Z,27.63
2018-02-22T01:56:54.485Z,25.93
2018-02-22T01:59:35.058Z,26.37
2018-02-22T02:02:17.045Z,26.77
2018-02-22T02:05:13.071Z,29.30
2018-02-22T02:07:53.181Z,25.13
2018-02-22T02:11:02.311Z,28.27
2018-02-22T02:13:52.572Z,28.67
2018-02-22T02:16:34.225Z,24.33
2018-02-22T02:35:11.853Z,30.65
2018-02-22T02:37:56.050Z,26.87
2018-02-22T02:40:43.206Z,26.67
2018-02-22T02:43:24.356Z,27.33
2018-02-22T02:46:11.242Z,27.70
2018-02-22T02:49:33.915Z,25.73
2018-02-22T02:52:28.136Z,24.87
2018-02-22T02:55:11.260Z,25.00
2018-02-22T03:03:37.679Z,24.30
2018-02-22T03:06:16.886Z,26.43
2018-02-22T03:08:55.937Z,25.60
2018-02-22T03:11:37.029Z,25.30
2018-02-22T03:14:14.479Z,22.97
2018-02-22T03:20:01.479Z,25.03
2018-02-22T03:22:45.105Z,25.30
2018-02-22T03:25:27.774Z,24.27
2018-02-22T03:28:10.274Z,25.37
2018-02-22T03:33:59.977Z,23.23
2018-02-22T03:36:46.832Z,21.17
2018-02-22T03:39:26.911Z,26.52
2018-02-22T03:42:05.457Z,25.63
2018-02-22T03:45:13.147Z,25.37
2018-02-22T03:48:04.470Z,24.80
2018-02-22T03:50:50.103Z,21.97
2018-02-22T03:59:19.276Z,25.17
2018-02-22T04:08:21.069Z,23.70
2018-02-22T04:11:03.779Z,24.17
2018-02-22T04:13:46.911Z,25.62
2018-02-22T04:16:40.705Z,24.50
2018-02-22T04:19:23.469Z,24.33
2018-02-22T04:22:04.146Z,24.53
2018-02-22T04:24:52.446Z,24.63
2018-02-22T04:27:44.429Z,22.00
2018-02-22T04:30:32.365Z,24.60
2018-02-22T04:33:17.295Z,23.97
2018-02-22T04:36:06.807Z,22.73
2018-02-22T04:38:52.908Z,26.03
2018-02-22T04:41:47.040Z,24.20
2018-02-22T04:44:29.145Z,22.60
2018-02-22T05:03:16.506Z,25.30
2018-02-22T05:06:07.366Z,26.40
2018-02-22T05:08:53.982Z,25.90
2018-02-22T05:11:44.906Z,25.20
2018-02-22T05:14:38.365Z,23.47
2018-02-22T05:17:25.450Z,23.70
2018-02-22T05:20:24.445Z,27.00
2018-02-22T09:23:49.210Z,18.37
2018-02-22T09:27:17.939Z,23.70
2018-02-22T09:33:35.591Z,21.87
2018-02-22T09:57:35.904Z,21.93
2018-02-22T10:01:06.552Z,22.43
2018-02-22T10:12:15.540Z,20.80
2018-02-22T10:22:36.350Z,18.70
2018-02-22T10:25:55.311Z,20.07
2018-02-22T11:42:27.558Z,10.80
2018-02-22T11:52:48.028Z,14.30
2018-02-22T12:45:38.416Z,9.88
2018-02-22T13:14:39.671Z,9.77
2018-02-22T13:36:16.299Z,9.33
2018-02-22T21:19:09.720Z,17.30
2018-02-22T21:42:34.995Z,17.10
2018-02-22T22:42:32.836Z,21.60
2018-02-22T22:45:59.569Z,18.00
2018-02-22T22:49:07.675Z,19.60
2018-02-22T22:55:00.010Z,20.37
2018-02-22T23:00:57.528Z,18.80
2018-02-22T23:04:10.019Z,21.00
2018-02-22T23:06:56.198Z,18.67
2018-02-22T23:09:48.730Z,18.00
2018-02-22T23:15:46.170Z,18.57
2018-02-22T23:19:22.252Z,19.10
2018-02-22T23:25:41.049Z,22.13
2018-02-22T23:28:28.703Z,19.80
2018-02-22T23:45:04.847Z,19.60
2018-02-22T23:48:07.223Z,19.00
2018-02-22T23:50:54.367Z,32.23
2018-02-22T23:53:43.496Z,17.40
2018-02-22T23:56:50.697Z,18.87
2018-02-22T23:59:46.451Z,18.00
